Lamezia Terme Airport LICA

Flugplatz Daten

Name: Lamezia Terme Airport

Ident: LICA

Lat: 38,90539932

Long: 16,24230003

Platzhöhe: 39 ft

IataCode: SUF

City: Lamezia Terme

Metar

2021/12/04 00:20
LICA 040020Z 07005KT 9999 -DZ SCT020 SCT080 11/09 Q1007

Taf

2021/12/03 00:00
TAF LICA 032300Z 0400/0424 07008KT 9999 SCT030
TEMPO 0400/0403 4000 SHRA
BECMG 0410/0412 25010KT
Gewünschte Webcam nicht vorhanden? Dann fügen Sie eine hinzu. Sie wird dann so schnell wie möglich freigeschaltet
Url: Title: